Time,TemperatureF,DewpointF,PressureIn,WindDirection,WindDirectionDegrees,WindSpeedMPH,WindSpeedGustMPH,Humidity,HourlyPrecipIn,Conditions,Clouds,dailyrainin,SoftwareType,DateUTC
2013-01-10 00:05:00,42.6,32.0,30.09,WSW,250,2.0,9.0,66,0.00,,,0.00,weatherlink.com 1.10,2013-01-10 05:05:00,
2013-01-10 00:20:00,42.2,32.0,30.09,WNW,287,1.0,6.0,67,0.00,,,0.00,weatherlink.com 1.10,2013-01-10 05:20:00,
2013-01-10 00:50:00,41.5,31.0,30.11,West,274,1.0,6.0,66,0.00,,,0.00,weatherlink.com 1.10,2013-01-10 05:50:00,
2013-01-10 01:05:00,41.5,30.0,30.11,WSW,256,4.0,10.0,63,0.00,,,0.00,weatherlink.com 1.10,2013-01-10 06:05:00,
2013-01-10 01:20:00,42.0,28.0,30.10,West,269,2.0,18.0,58,0.00,,,0.00,weatherlink.com 1.10,2013-01-10 06:20:00,
2013-01-10 01:35:00,42.0,28.0,30.11,WSW,257,6.0,11.0,57,0.00,,,0.00,weatherlink.com 1.10,2013-01-10 06:35:00,
2013-01-10 01:50:00,42.5,27.0,30.10,West,274,9.0,23.0,54,0.00,,,0.00,weatherlink.com 1.10,2013-01-10 06:50:00,
2013-01-10 02:05:00,43.4,26.0,30.11,West,281,12.0,17.0,51,0.00,,,0.00,weatherlink.com 1.10,2013-01-10 07:05:00,
2013-01-10 02:21:00,43.8,27.0,30.13,WNW,288,18.0,26.0,51,0.00,,,0.00,weatherlink.com 1.10,2013-01-10 07:21:00,
2013-01-10 02:36:00,42.9,26.0,30.15,WNW,284,13.0,28.0,52,0.00,,,0.00,weatherlink.com 1.10,2013-01-10 07:36:00,
2013-01-10 02:51:00,42.1,26.0,30.16,NW,304,7.0,19.0,53,0.00,,,0.00,weatherlink.com 1.10,2013-01-10 07:51:00,
2013-01-10 03:07:00,41.6,26.0,30.16,WNW,284,9.0,16.0,54,0.00,,,0.00,weatherlink.com 1.10,2013-01-10 08:07:00,
2013-01-10 03:21:00,41.5,25.0,30.16,NNW,339,11.0,30.0,53,0.00,,,0.00,weatherlink.com 1.10,2013-01-10 08:21:00,
2013-01-10 03:36:00,41.3,26.0,30.17,West,271,7.0,17.0,54,0.00,,,0.00,weatherlink.com 1.10,2013-01-10 08:36:00,
2013-01-10 03:51:00,41.4,26.0,30.17,West,271,12.0,22.0,54,0.00,,,0.00,weatherlink.com 1.10,2013-01-10 08:51:00,
2013-01-10 04:06:00,41.5,25.0,30.18,WNW,298,15.0,27.0,53,0.00,,,0.00,weatherlink.com 1.10,2013-01-10 09:06:00,
2013-01-10 04:21:00,41.3,25.0,30.18,West,260,4.0,30.0,53,0.00,,,0.00,weatherlink.com 1.10,2013-01-10 09:21:00,
2013-01-10 04:36:00,41.1,25.0,30.19,NW,304,15.0,31.0,53,0.00,,,0.00,weatherlink.com 1.10,2013-01-10 09:36:00,
2013-01-10 04:51:00,40.8,25.0,30.21,NW,323,13.0,19.0,53,0.00,,,0.00,weatherlink.com 1.10,2013-01-10 09:51:00,
2013-01-10 05:08:00,40.5,25.0,30.22,West,264,5.0,19.0,54,0.00,,,0.00,weatherlink.com 1.10,2013-01-10 10:08:00,
2013-01-10 05:21:00,40.2,25.0,30.23,WNW,285,6.0,15.0,54,0.00,,,0.00,weatherlink.com 1.10,2013-01-10 10:21:00,
2013-01-10 05:36:00,39.8,25.0,30.25,West,271,2.0,14.0,55,0.00,,,0.00,weatherlink.com 1.10,2013-01-10 10:36:00,
2013-01-10 05:51:00,39.6,25.0,30.25,West,270,4.0,13.0,56,0.00,,,0.00,weatherlink.com 1.10,2013-01-10 10:51:00,
2013-01-10 06:06:00,39.3,25.0,30.26,WNW,285,3.0,10.0,56,0.00,,,0.00,weatherlink.com 1.10,2013-01-10 11:06:00,
2013-01-10 06:21:00,38.9,25.0,30.27,West,281,4.0,10.0,58,0.00,,,0.00,weatherlink.com 1.10,2013-01-10 11:21:00,
2013-01-10 06:36:00,38.6,25.0,30.27,NW,304,2.0,11.0,58,0.00,,,0.00,weatherlink.com 1.10,2013-01-10 11:36:00,
2013-01-10 06:51:00,38.4,25.0,30.29,NW,319,4.0,11.0,59,0.00,,,0.00,weatherlink.com 1.10,2013-01-10 11:51:00,
2013-01-10 07:21:00,37.6,25.0,30.31,West,276,5.0,10.0,60,0.00,,,0.00,weatherlink.com 1.10,2013-01-10 12:21:00,
2013-01-10 07:36:00,37.8,25.0,30.32,WSW,246,3.0,7.0,60,0.00,,,0.00,weatherlink.com 1.10,2013-01-10 12:36:00,
2013-01-10 07:51:00,38.3,24.0,30.33,West,261,5.0,10.0,57,0.00,,,0.00,weatherlink.com 1.10,2013-01-10 12:51:00,
2013-01-10 08:06:00,38.6,24.0,30.34,NW,309,6.0,9.0,56,0.00,,,0.00,weatherlink.com 1.10,2013-01-10 13:06:00,
2013-01-10 08:21:00,39.0,24.0,30.34,West,278,3.0,15.0,55,0.00,,,0.00,weatherlink.com 1.10,2013-01-10 13:21:00,
2013-01-10 08:37:00,39.4,23.0,30.35,WNW,293,3.0,11.0,53,0.00,,,0.00,weatherlink.com 1.10,2013-01-10 13:37:00,
2013-01-10 08:52:00,39.7,23.0,30.36,WSW,255,5.0,15.0,52,0.00,,,0.00,weatherlink.com 1.10,2013-01-10 13:52:00,
2013-01-10 09:07:00,40.0,23.0,30.37,NW,310,2.0,14.0,51,0.00,,,0.00,weatherlink.com 1.10,2013-01-10 14:07:00,
2013-01-10 09:22:00,40.2,23.0,30.36,WNW,283,4.0,15.0,50,0.00,,,0.00,weatherlink.com 1.10,2013-01-10 14:22:00,
2013-01-10 09:37:00,40.6,24.0,30.36,WNW,302,6.0,16.0,51,0.00,,,0.00,weatherlink.com 1.10,2013-01-10 14:37:00,
2013-01-10 09:52:00,40.9,23.0,30.37,WSW,239,7.0,21.0,50,0.00,,,0.00,weatherlink.com 1.10,2013-01-10 14:52:00,
2013-01-10 10:07:00,41.1,23.0,30.38,NW,311,6.0,22.0,49,0.00,,,0.00,weatherlink.com 1.10,2013-01-10 15:07:00,
2013-01-10 10:22:00,41.5,23.0,30.38,WNW,293,11.0,16.0,48,0.00,,,0.00,weatherlink.com 1.10,2013-01-10 15:22:00,
2013-01-10 10:37:00,41.3,22.0,30.38,WNW,290,12.0,20.0,47,0.00,,,0.00,weatherlink.com 1.10,2013-01-10 15:37:00,
2013-01-10 10:52:00,41.8,23.0,30.37,West,279,4.0,14.0,47,0.00,,,0.00,weatherlink.com 1.10,2013-01-10 15:52:00,
2013-01-10 11:07:00,42.2,23.0,30.36,WNW,290,5.0,16.0,47,0.00,,,0.00,weatherlink.com 1.10,2013-01-10 16:07:00,
2013-01-10 11:22:00,42.0,22.0,30.35,WNW,295,10.0,18.0,46,0.00,,,0.00,weatherlink.com 1.10,2013-01-10 16:22:00,
2013-01-10 11:37:00,42.4,23.0,30.35,NW,311,9.0,19.0,46,0.00,,,0.00,weatherlink.com 1.10,2013-01-10 16:37:00,
2013-01-10 11:52:00,42.9,23.0,30.35,SW,228,4.0,17.0,46,0.00,,,0.00,weatherlink.com 1.10,2013-01-10 16:52:00,
2013-01-10 12:07:00,43.5,23.0,30.35,West,276,3.0,18.0,44,0.00,,,0.00,weatherlink.com 1.10,2013-01-10 17:07:00,
2013-01-10 12:22:00,43.6,23.0,30.35,WSW,242,8.0,15.0,44,0.00,,,0.00,weatherlink.com 1.10,2013-01-10 17:22:00,
2013-01-10 12:37:00,43.6,22.0,30.35,WNW,295,12.0,18.0,43,0.00,,,0.00,weatherlink.com 1.10,2013-01-10 17:37:00,
2013-01-10 12:52:00,44.3,23.0,30.35,WNW,297,7.0,17.0,44,0.00,,,0.00,weatherlink.com 1.10,2013-01-10 17:52:00,
2013-01-10 13:07:00,44.4,23.0,30.36,West,259,4.0,17.0,43,0.00,,,0.00,weatherlink.com 1.10,2013-01-10 18:07:00,
2013-01-10 13:22:00,44.4,22.0,30.36,West,281,4.0,19.0,42,0.00,,,0.00,weatherlink.com 1.10,2013-01-10 18:22:00,
2013-01-10 13:37:00,44.8,22.0,30.37,WNW,301,16.0,19.0,41,0.00,,,0.00,weatherlink.com 1.10,2013-01-10 18:37:00,
2013-01-10 13:52:00,44.8,22.0,30.38,WNW,295,5.0,27.0,41,0.00,,,0.00,weatherlink.com 1.10,2013-01-10 18:52:00,
2013-01-10 14:07:00,45.0,22.0,30.38,NW,316,6.0,14.0,41,0.00,,,0.00,weatherlink.com 1.10,2013-01-10 19:07:00,
2013-01-10 14:22:00,45.1,23.0,30.39,WNW,298,4.0,18.0,42,0.00,,,0.00,weatherlink.com 1.10,2013-01-10 19:22:00,
2013-01-10 14:37:00,45.4,23.0,30.39,WNW,303,4.0,15.0,41,0.00,,,0.00,weatherlink.com 1.10,2013-01-10 19:37:00,
2013-01-10 14:52:00,45.4,22.0,30.39,NW,305,3.0,15.0,40,0.00,,,0.00,weatherlink.com 1.10,2013-01-10 19:52:00,
2013-01-10 15:07:00,45.3,22.0,30.40,West,279,5.0,14.0,40,0.00,,,0.00,weatherlink.com 1.10,2013-01-10 20:07:00,
2013-01-10 15:22:00,44.9,22.0,30.40,NW,308,9.0,19.0,41,0.00,,,0.00,weatherlink.com 1.10,2013-01-10 20:22:00,
2013-01-10 15:39:00,44.5,22.0,30.41,NW,317,9.0,20.0,41,0.00,,,0.00,weatherlink.com 1.10,2013-01-10 20:39:00,
2013-01-10 15:52:00,44.3,22.0,30.41,WNW,295,6.0,16.0,42,0.00,,,0.00,weatherlink.com 1.10,2013-01-10 20:52:00,
2013-01-10 16:07:00,44.1,22.0,30.42,WNW,294,4.0,15.0,42,0.00,,,0.00,weatherlink.com 1.10,2013-01-10 21:07:00,
2013-01-10 16:22:00,43.6,22.0,30.42,WNW,298,7.0,16.0,43,0.00,,,0.00,weatherlink.com 1.10,2013-01-10 21:22:00,
2013-01-10 16:37:00,42.8,23.0,30.43,NW,313,4.0,7.0,45,0.00,,,0.00,weatherlink.com 1.10,2013-01-10 21:37:00,
2013-01-10 16:52:00,42.6,22.0,30.44,NW,311,6.0,11.0,45,0.00,,,0.00,weatherlink.com 1.10,2013-01-10 21:52:00,
2013-01-10 17:07:00,42.0,22.0,30.45,WNW,300,1.0,14.0,46,0.00,,,0.00,weatherlink.com 1.10,2013-01-10 22:07:00,
2013-01-10 17:22:00,41.5,22.0,30.46,WNW,288,4.0,6.0,47,0.00,,,0.00,weatherlink.com 1.10,2013-01-10 22:22:00,
2013-01-10 17:52:00,40.5,23.0,30.47,WNW,301,2.0,3.0,49,0.00,,,0.00,weatherlink.com 1.10,2013-01-10 22:52:00,
2013-01-10 18:07:00,40.2,23.0,30.46,West,270,3.0,9.0,50,0.00,,,0.00,weatherlink.com 1.10,2013-01-10 23:07:00,
2013-01-10 18:22:00,39.9,23.0,30.47,WNW,298,3.0,8.0,51,0.00,,,0.00,weatherlink.com 1.10,2013-01-10 23:22:00,
2013-01-10 18:37:00,39.4,23.0,30.47,NW,304,4.0,4.0,52,0.00,,,0.00,weatherlink.com 1.10,2013-01-10 23:37:00,
2013-01-10 18:53:00,38.8,23.0,30.48,WNW,298,2.0,6.0,53,0.00,,,0.00,weatherlink.com 1.10,2013-01-10 23:53:00,
2013-01-10 19:07:00,38.4,23.0,30.48,WSW,256,2.0,5.0,54,0.00,,,0.00,weatherlink.com 1.10,2013-01-11 00:07:00,
2013-01-10 19:22:00,37.9,23.0,30.48,NW,308,4.0,6.0,55,0.00,,,0.00,weatherlink.com 1.10,2013-01-11 00:22:00,
2013-01-10 19:37:00,37.6,23.0,30.50,NW,322,1.0,4.0,56,0.00,,,0.00,weatherlink.com 1.10,2013-01-11 00:37:00,
2013-01-10 19:52:00,37.4,23.0,30.50,West,269,1.0,5.0,56,0.00,,,0.00,weatherlink.com 1.10,2013-01-11 00:52:00,
2013-01-10 20:08:00,36.6,23.0,30.50,NNW,327,2.0,6.0,58,0.00,,,0.00,weatherlink.com 1.10,2013-01-11 01:08:00,
2013-01-10 20:38:00,35.9,23.0,30.51,WNW,300,4.0,7.0,60,0.00,,,0.00,weatherlink.com 1.10,2013-01-11 01:38:00,
2013-01-10 20:53:00,35.4,23.0,30.52,WNW,284,1.0,7.0,61,0.00,,,0.00,weatherlink.com 1.10,2013-01-11 01:53:00,
2013-01-10 21:08:00,35.5,23.0,30.52,NNW,333,1.0,6.0,61,0.00,,,0.00,weatherlink.com 1.10,2013-01-11 02:08:00,
2013-01-10 21:23:00,35.5,23.0,30.52,West,281,3.0,7.0,61,0.00,,,0.00,weatherlink.com 1.10,2013-01-11 02:23:00,
2013-01-10 21:38:00,35.3,23.0,30.54,NNW,336,2.0,5.0,62,0.00,,,0.00,weatherlink.com 1.10,2013-01-11 02:38:00,
2013-01-10 21:53:00,35.0,23.0,30.54,NW,322,1.0,4.0,62,0.00,,,0.00,weatherlink.com 1.10,2013-01-11 02:53:00,
2013-01-10 22:23:00,33.9,24.0,30.54,NNW,332,2.0,4.0,66,0.00,,,0.00,weatherlink.com 1.10,2013-01-11 03:23:00,
2013-01-10 22:38:00,33.8,23.0,30.54,NW,316,0.0,4.0,65,0.00,,,0.00,weatherlink.com 1.10,2013-01-11 03:38:00,
2013-01-10 22:53:00,33.4,23.0,30.54,NNW,345,1.0,3.0,66,0.00,,,0.00,weatherlink.com 1.10,2013-01-11 03:53:00,
2013-01-10 23:08:00,33.4,23.0,30.54,NW,321,2.0,4.0,66,0.00,,,0.00,weatherlink.com 1.10,2013-01-11 04:08:00,
2013-01-10 23:23:00,33.0,23.0,30.54,WNW,287,0.0,4.0,66,0.00,,,0.00,weatherlink.com 1.10,2013-01-11 04:23:00,
2013-01-10 23:38:00,32.1,23.0,30.53,West,266,0.0,2.0,68,0.00,,,0.00,weatherlink.com 1.10,2013-01-11 04:38:00,
2013-01-10 23:53:00,31.5,23.0,30.54,West,266,0.0,0.0,70,0.00,,,0.00,weatherlink.com 1.10,2013-01-11 04:53:00,